Home > Products > Valid Products > TAF

000
FTUS44 KOHX 071120
TAFCKV
TAF
KCKV 071120Z 0712/0812 23008KT P6SM BKN250
     FM080100 23007KT P6SM OVC100
     FM080600 24008KT P6SM -SHRA OVC050
     FM080900 28007KT 6SM -SHRA BR OVC025=



000
FTUS44 KOHX 071120
TAFCSV
TAF
KCSV 071120Z 0712/0812 32003KT P6SM BKN200
     FM080400 23006KT P6SM OVC100
     FM080700 23007KT P6SM -SHRA OVC050
     FM080900 24006KT 6SM -SHRASN OVC025=



000
FTUS44 KOHX 071120
TAFBNA
TAF
KBNA 071120Z 0712/0812 19003KT P6SM BKN250
     FM080200 21006KT P6SM OVC100
     FM080700 24007KT P6SM -SHRA OVC050
     FM081000 26006KT 6SM -SHRA BR OVC025=



000
FTUS44 KOHX 070524
TAFBNA
TAF
KBNA 070524Z 0706/0806 VRB04KT P6SM SKC
     FM071800 23010KT P6SM SCT120
     FM072300 21007KT P6SM OVC120=



000
FTUS44 KOHX 070524
TAFCKV
TAF
KCKV 070524Z 0706/0806 VRB04KT P6SM SKC
     FM071700 23009G18KT P6SM SCT120
     FM080000 22007KT P6SM OVC120=



000
FTUS44 KOHX 070524
TAFCSV
TAF
KCSV 070524Z 0706/0806 VRB03KT P6SM SKC
     FM071900 24007KT P6SM SKC
     FM080000 00000KT P6SM BKN120=



000
FTUS44 KOHX 062324
TAFBNA
TAF
KBNA 062324Z 0700/0724 VRB04KT P6SM BKN150 BKN250
     FM071800 23010KT P6SM SCT120=



000
FTUS44 KOHX 062324
TAFCKV
TAF
KCKV 062324Z 0700/0724 VRB04KT P6SM SKC
     FM071700 23009G18KT P6SM SCT120=



000
FTUS44 KOHX 062324
TAFBNA
TAF
KBNA 062324Z 0700/0724 VRB04KT P6SM BKN150 BKN250
     FM071800 23010KT P6SM SCT120=



000
FTUS44 KOHX 062324
TAFCKV
TAF
KCKV 062324Z 0700/0724 VRB04KT P6SM SKC
     FM071700 23009G18KT P6SM SCT120=



000
FTUS44 KOHX 062324
TAFCSV
TAF
KCSV 062324Z 0700/0724 VRB03KT P6SM BKN120
     FM071900 24007KT P6SM SKC=



000
FTUS44 KOHX 062324
TAFCSV
TAF
KCSV 062324Z 0700/0724 VRB03KT P6SM BKN120
     FM071900 24007KT P6SM SKC=



000
FTUS44 KOHX 061722
TAFBNA
TAF
KBNA 061722Z 0618/0718 VRB04KT P6SM SCT090 BKN250=



000
FTUS44 KOHX 061722
TAFCKV
TAF
KCKV 061722Z 0618/0718 29004KT P6SM SCT090 BKN250=



000
FTUS44 KOHX 061722
TAFCSV
TAF
KCSV 061722Z 0618/0718 VRB03KT P6SM SCT090 BKN250=



000
FTUS44 KOHX 061120
TAFCSV
TAF
KCSV 061120Z 0612/0712 VRB03KT P6SM BKN250=



000
FTUS44 KOHX 061120
TAFBNA
TAF
KBNA 061120Z 0612/0712 VRB03KT P6SM BKN250
     FM061800 29004KT P6SM SCT100 BKN250=



000
FTUS44 KOHX 061120
TAFCKV
TAF
KCKV 061120Z 0612/0712 VRB03KT P6SM BKN250
     FM061800 27004KT P6SM BKN250=



000
FTUS44 KOHX 061120
TAFBNA
TAF
KBNA 061120Z 0612/0712 VRB03KT P6SM BKN250
     FM061800 29004KT P6SM SCT100 BKN250=



000
FTUS44 KOHX 061120
TAFCKV
TAF
KCKV 061120Z 0612/0712 VRB03KT P6SM BKN250
     FM061800 27004KT P6SM BKN250=



000
FTUS44 KOHX 061120
TAFCSV
TAF
KCSV 061120Z 0612/0712 VRB03KT P6SM BKN250=



000
FTUS44 KOHX 060521
TAFBNA
TAF
KBNA 060521Z 0606/0706 VRB03KT P6SM BKN250=



000
FTUS44 KOHX 060521
TAFCSV
TAF
KCSV 060521Z 0606/0706 VRB03KT P6SM BKN250=



000
FTUS44 KOHX 060521
TAFCKV
TAF
KCKV 060521Z 0606/0706 26004KT P6SM BKN250=



000
FTUS44 KOHX 052322
TAFCKV
TAF
KCKV 052322Z 0600/0624 26004KT P6SM BKN250=



000
FTUS44 KOHX 052322
TAFBNA
TAF
KBNA 052322Z 0600/0624 VRB03KT P6SM BKN250=



000
FTUS44 KOHX 052322
TAFBNA
TAF
KBNA 052322Z 0600/0624 VRB03KT P6SM BKN250=



000
FTUS44 KOHX 052322
TAFCSV
TAF
KCSV 052322Z 0600/0624 VRB03KT P6SM BKN250=



000
FTUS44 KOHX 052322
TAFCKV
TAF
KCKV 052322Z 0600/0624 26004KT P6SM BKN250=



000
FTUS44 KOHX 052322
TAFCSV
TAF
KCSV 052322Z 0600/0624 VRB03KT P6SM BKN250=



000
FTUS44 KOHX 051725
TAFCKV
TAF
KCKV 051725Z 0518/0618 18006KT P6SM BKN250=



000
FTUS44 KOHX 051725
TAFCSV
TAF
KCSV 051725Z 0518/0618 VRB05KT P6SM SCT250
     FM060200 00000KT P6SM SKC
     FM061200 00000KT P6SM BKN250=



000
FTUS44 KOHX 051725
TAFBNA
TAF
KBNA 051725Z 0518/0618 VRB03KT P6SM BKN250=



000
FTUS44 KOHX 051725
TAFCSV
TAF
KCSV 051725Z 0518/0618 VRB05KT P6SM SCT250
     FM060200 00000KT P6SM SKC
     FM061200 00000KT P6SM BKN250=



000
FTUS44 KOHX 051725
TAFBNA
TAF
KBNA 051725Z 0518/0618 VRB03KT P6SM BKN250=



000
FTUS44 KOHX 051725
TAFCKV
TAF
KCKV 051725Z 0518/0618 18006KT P6SM BKN250=



000
FTUS44 KOHX 051120
TAFBNA
TAF
KBNA 051120Z 0512/0612 20005KT P6SM SKC=



000
FTUS44 KOHX 051120
TAFCSV
TAF
KCSV 051120Z 0512/0612 36005KT P6SM SKC
     FM060200 27003KT P6SM SKC=



000
FTUS44 KOHX 051120
TAFCKV
TAF
KCKV 051120Z 0512/0612 21005KT P6SM SKC=



000
FTUS44 KOHX 051120
TAFBNA
TAF
KBNA 051120Z 0512/0612 20005KT P6SM SKC=



000
FTUS44 KOHX 051120
TAFCSV
TAF
KCSV 051120Z 0512/0612 36005KT P6SM SKC
     FM060200 27003KT P6SM SKC=



000
FTUS44 KOHX 051120
TAFCKV
TAF
KCKV 051120Z 0512/0612 21005KT P6SM SKC=



000
FTUS44 KOHX 050521
TAFBNA
TAF
KBNA 050521Z 0506/0606 00000KT P6SM SKC
     FM051600 VRB06KT P6SM SKC=



000
FTUS44 KOHX 050521
TAFCKV
TAF
KCKV 050521Z 0506/0606 00000KT P6SM SKC
     FM051600 22008KT P6SM SKC=



000
FTUS44 KOHX 050521
TAFCSV
TAF
KCSV 050521Z 0506/0606 VRB05KT P6SM SKC=



000
FTUS44 KOHX 042320
TAFBNA
TAF
KBNA 042320Z 0500/0524 32009KT P6SM FEW050
     FM050100 VRB04KT P6SM SKC=



000
FTUS44 KOHX 042320
TAFCSV
TAF
KCSV 042320Z 0500/0524 34009G17KT P6SM SKC
     FM050100 VRB05KT P6SM SKC=



000
FTUS44 KOHX 042320
TAFCKV
TAF
KCKV 042320Z 0500/0524 34008KT P6SM SKC
     FM050100 VRB04KT P6SM SKC=



000
FTUS44 KOHX 042320
TAFCSV
TAF
KCSV 042320Z 0500/0524 34009G17KT P6SM SKC
     FM050100 VRB05KT P6SM SKC=



000
FTUS44 KOHX 042320
TAFBNA
TAF
KBNA 042320Z 0500/0524 32009KT P6SM FEW050
     FM050100 VRB04KT P6SM SKC=



000
FTUS44 KOHX 042320
TAFCKV
TAF
KCKV 042320Z 0500/0524 34008KT P6SM SKC
     FM050100 VRB04KT P6SM SKC=



000
FTUS44 KOHX 042105 AAA
TAFCSV
TAF AMD
KCSV 042105Z 0421/0518 30009G17KT P6SM SKC
     FM050100 34003KT P6SM SKC=



000
FTUS44 KOHX 042105 AAA
TAFCKV
TAF AMD
KCKV 042105Z 0421/0518 35012G20KT P6SM SKC
     FM050100 VRB04KT P6SM SKC=



000
FTUS44 KOHX 042104 AAA
TAFBNA
TAF AMD
KBNA 042104Z 0421/0518 32011G16KT P6SM FEW050
     FM050100 VRB04KT P6SM SKC=



000
FTUS44 KOHX 041728
TAFBNA
TAF
KBNA 041728Z 0418/0518 33009KT P6SM SCT040
     FM050100 VRB04KT P6SM SKC=



000
FTUS44 KOHX 041728
TAFCSV
TAF
KCSV 041728Z 0418/0518 32010KT P6SM SCT035
     FM050100 34003KT P6SM SKC=



000
FTUS44 KOHX 041728
TAFCKV
TAF
KCKV 041728Z 0418/0518 32009KT P6SM SCT040
     FM050100 VRB04KT P6SM SKC=



000
FTUS44 KOHX 041728
TAFCKV
TAF
KCKV 041728Z 0418/0518 32009KT P6SM SCT040
     FM050100 VRB04KT P6SM SKC=



000
FTUS44 KOHX 041728
TAFBNA
TAF
KBNA 041728Z 0418/0518 33009KT P6SM SCT040
     FM050100 VRB04KT P6SM SKC=



000
FTUS44 KOHX 041728
TAFCSV
TAF
KCSV 041728Z 0418/0518 32010KT P6SM SCT035
     FM050100 34003KT P6SM SKC=



    US Dept of Commerce
    National Oceanic and Atmospheric Administration
    National Weather Service
    1325 East West Highway
    Silver Spring, MD 20910
    Page Author: NWS Internet Services Team
Disclaimer
Information Quality
Credits
Glossary
Privacy Policy
Freedom of Information Act (FOIA)
About Us
Career Opportunities